createdAt,value
2018-05-08T00:00:04.329Z,78.27
2018-05-08T00:00:35.562Z,77.97
2018-05-08T00:01:06.787Z,78.23
2018-05-08T00:01:37.997Z,78.65
2018-05-08T00:02:09.232Z,78.92
2018-05-08T00:02:40.491Z,77.98
2018-05-08T00:03:11.716Z,78.42
2018-05-08T00:03:42.922Z,78.13
2018-05-08T00:04:14.143Z,77.66
2018-05-08T00:04:45.371Z,78.14
2018-05-08T00:05:16.601Z,78.18
2018-05-08T00:05:47.809Z,78.28
2018-05-08T00:06:19.017Z,78.29
2018-05-08T00:06:50.225Z,78.18
2018-05-08T00:07:21.491Z,78.03
2018-05-08T00:07:52.792Z,77.61
2018-05-08T00:08:24.005Z,77.34
2018-05-08T00:08:55.241Z,76.80
2018-05-08T00:09:26.458Z,76.63
2018-05-08T00:09:57.701Z,76.77
2018-05-08T00:10:28.912Z,76.82
2018-05-08T00:11:00.125Z,76.75
2018-05-08T00:11:31.380Z,77.03
2018-05-08T00:12:02.593Z,77.43
2018-05-08T00:12:33.846Z,77.23
2018-05-08T00:13:05.057Z,77.24
2018-05-08T00:13:36.262Z,77.42
2018-05-08T00:14:07.482Z,77.61
2018-05-08T00:14:38.691Z,77.63
2018-05-08T00:15:09.915Z,77.72
2018-05-08T00:15:42.015Z,76.61
2018-05-08T00:16:13.230Z,76.25
2018-05-08T00:16:44.453Z,76.56
2018-05-08T00:17:15.657Z,76.90
2018-05-08T00:17:46.870Z,77.39
2018-05-08T00:18:18.086Z,78.34
2018-05-08T00:18:49.284Z,78.77
2018-05-08T00:19:21.463Z,78.16
2018-05-08T00:19:52.676Z,77.81
2018-05-08T00:20:24.572Z,77.09
2018-05-08T00:20:55.828Z,76.86
2018-05-08T00:21:27.083Z,76.90
2018-05-08T00:21:58.284Z,76.76
2018-05-08T00:22:29.501Z,76.97
2018-05-08T00:23:00.716Z,77.42
2018-05-08T00:23:31.924Z,77.71
2018-05-08T00:24:03.145Z,77.42
2018-05-08T00:24:34.355Z,76.87
2018-05-08T00:25:05.558Z,76.76
2018-05-08T00:25:36.813Z,76.59
2018-05-08T00:26:08.019Z,76.49
2018-05-08T00:26:39.277Z,76.34
2018-05-08T00:27:10.492Z,76.17
2018-05-08T00:27:41.711Z,76.14
2018-05-08T00:28:12.917Z,76.56
2018-05-08T00:28:44.136Z,75.66
2018-05-08T00:29:15.361Z,75.12
2018-05-08T00:29:46.574Z,75.30
2018-05-08T00:30:17.782Z,75.24
2018-05-08T00:30:49.017Z,75.56
2018-05-08T00:31:20.233Z,74.75
2018-05-08T00:31:51.484Z,75.01
2018-05-08T00:32:22.693Z,74.97
2018-05-08T00:32:53.897Z,74.94
2018-05-08T00:33:57.026Z,75.62
2018-05-08T00:34:28.344Z,75.82
2018-05-08T00:34:59.617Z,75.73
2018-05-08T00:35:30.828Z,75.85
2018-05-08T00:36:02.042Z,75.95
2018-05-08T00:36:33.291Z,75.72
2018-05-08T00:37:04.508Z,75.34
2018-05-08T00:37:35.777Z,74.49
2018-05-08T00:38:06.980Z,74.64
2018-05-08T00:38:38.184Z,74.72
2018-05-08T00:39:09.394Z,74.11
2018-05-08T00:39:40.605Z,73.88
2018-05-08T00:40:11.813Z,73.89
2018-05-08T00:40:43.678Z,73.93
2018-05-08T00:41:14.889Z,73.61
2018-05-08T00:41:46.097Z,74.23
2018-05-08T00:42:17.305Z,74.96
2018-05-08T00:42:48.590Z,74.90
2018-05-08T00:43:19.813Z,75.14
2018-05-08T00:43:51.034Z,74.77
2018-05-08T00:44:22.229Z,74.94
2018-05-08T00:44:53.441Z,75.11
2018-05-08T00:45:24.673Z,75.30
2018-05-08T00:45:55.885Z,75.55
2018-05-08T00:46:27.090Z,75.72
2018-05-08T00:46:58.325Z,76.03
2018-05-08T00:47:29.535Z,76.66
2018-05-08T00:48:00.835Z,76.02
2018-05-08T00:48:32.084Z,75.98
2018-05-08T00:49:03.324Z,76.28
2018-05-08T00:49:34.537Z,76.44
2018-05-08T00:50:05.760Z,76.33
2018-05-08T00:50:36.997Z,76.43
2018-05-08T00:51:08.209Z,77.62
2018-05-08T00:51:39.432Z,77.22
2018-05-08T00:52:10.638Z,76.75
2018-05-08T00:52:41.841Z,76.83
2018-05-08T00:53:13.111Z,76.75
2018-05-08T00:53:44.336Z,76.23
2018-05-08T00:54:15.548Z,76.22
2018-05-08T00:54:46.776Z,76.77
2018-05-08T00:55:18.018Z,76.96
2018-05-08T00:55:49.237Z,76.61
2018-05-08T00:56:20.450Z,76.20
2018-05-08T00:56:51.662Z,75.72
2018-05-08T00:57:22.911Z,75.91
2018-05-08T00:57:54.131Z,75.67
2018-05-08T00:58:25.342Z,75.79
2018-05-08T00:58:56.531Z,76.06
2018-05-08T00:59:27.745Z,76.23
2018-05-08T00:59:58.953Z,76.09
2018-05-08T01:00:30.227Z,75.65
2018-05-08T01:01:01.435Z,75.48
2018-05-08T01:01:33.716Z,75.95
2018-05-08T01:02:04.929Z,75.88
2018-05-08T01:02:36.142Z,75.74
2018-05-08T01:03:07.421Z,75.81
2018-05-08T01:03:38.640Z,75.79
2018-05-08T01:04:09.864Z,75.97
2018-05-08T01:04:41.086Z,76.00
2018-05-08T01:05:13.457Z,76.06
2018-05-08T01:05:44.663Z,76.17
2018-05-08T01:06:15.911Z,76.47
2018-05-08T01:06:47.128Z,76.48
2018-05-08T01:07:18.338Z,76.60
2018-05-08T01:07:49.548Z,76.46
2018-05-08T01:08:20.798Z,76.10
2018-05-08T01:08:52.005Z,75.52
2018-05-08T01:09:23.217Z,75.53
2018-05-08T01:09:54.436Z,75.36
2018-05-08T01:10:25.668Z,75.51
2018-05-08T01:10:56.894Z,75.42
2018-05-08T01:11:28.113Z,75.45
2018-05-08T01:11:59.329Z,75.13
2018-05-08T01:12:30.533Z,74.76
2018-05-08T01:13:01.736Z,74.71
2018-05-08T01:13:32.983Z,74.75
2018-05-08T01:14:04.205Z,74.74
2018-05-08T01:14:35.412Z,74.71
2018-05-08T01:15:06.617Z,75.00
2018-05-08T01:15:37.853Z,75.44
2018-05-08T01:16:09.081Z,74.68
2018-05-08T01:16:40.327Z,75.12
2018-05-08T01:17:11.574Z,74.47
2018-05-08T01:17:42.795Z,74.23
2018-05-08T01:18:14.005Z,74.12
2018-05-08T01:18:45.232Z,73.86
2018-05-08T01:19:16.445Z,73.68
2018-05-08T01:19:47.657Z,73.63
2018-05-08T01:20:18.867Z,73.72
2018-05-08T01:20:50.142Z,73.63
2018-05-08T01:21:21.368Z,73.68
2018-05-08T01:21:52.596Z,73.63
2018-05-08T01:22:23.818Z,73.24
2018-05-08T01:22:55.033Z,73.56
2018-05-08T01:23:26.277Z,73.39
2018-05-08T01:23:57.501Z,73.35
2018-05-08T01:24:28.707Z,73.34
2018-05-08T01:24:59.919Z,73.31
2018-05-08T01:25:31.142Z,73.27
2018-05-08T01:26:02.366Z,73.46
2018-05-08T01:26:33.573Z,73.63
2018-05-08T01:27:04.778Z,74.30
2018-05-08T01:27:35.985Z,73.92
2018-05-08T01:28:07.266Z,73.83
2018-05-08T01:28:38.485Z,73.89
2018-05-08T01:29:09.696Z,74.04
2018-05-08T01:29:40.943Z,74.34
2018-05-08T01:30:12.160Z,74.00
2018-05-08T01:30:43.380Z,73.88
2018-05-08T01:31:14.593Z,73.68
2018-05-08T01:31:46.414Z,73.76
2018-05-08T01:32:17.652Z,74.09
2018-05-08T01:32:48.938Z,73.81
2018-05-08T01:33:20.184Z,73.73
2018-05-08T01:33:51.393Z,74.41
2018-05-08T01:34:22.600Z,73.80
2018-05-08T01:34:53.801Z,73.99
2018-05-08T01:35:25.036Z,73.84
2018-05-08T01:35:56.245Z,73.87
2018-05-08T01:36:27.445Z,73.67
2018-05-08T01:36:58.688Z,73.19
2018-05-08T01:37:29.878Z,73.53
2018-05-08T01:38:01.124Z,73.45
2018-05-08T01:38:32.344Z,73.54
2018-05-08T01:39:03.553Z,73.13
2018-05-08T01:39:34.767Z,72.94
2018-05-08T01:40:05.968Z,73.62
2018-05-08T01:40:37.304Z,73.89
2018-05-08T01:41:08.549Z,73.37
2018-05-08T01:41:39.753Z,73.77
2018-05-08T01:42:10.961Z,73.66
2018-05-08T01:42:42.179Z,73.46
2018-05-08T01:43:13.419Z,73.29
2018-05-08T01:43:44.634Z,73.51
2018-05-08T01:44:15.840Z,72.87
2018-05-08T01:44:47.064Z,72.63
2018-05-08T01:45:18.278Z,72.65
2018-05-08T01:45:49.525Z,72.95
2018-05-08T01:46:20.732Z,73.56
2018-05-08T01:46:52.030Z,73.00
2018-05-08T01:47:23.208Z,73.47
2018-05-08T01:47:54.436Z,73.53
2018-05-08T01:48:25.748Z,73.30
2018-05-08T01:48:56.955Z,72.76
2018-05-08T01:49:28.235Z,72.68
2018-05-08T01:49:59.454Z,72.11
2018-05-08T01:50:30.697Z,71.87
2018-05-08T01:51:01.901Z,72.22
2018-05-08T01:51:33.113Z,72.45
2018-05-08T01:52:04.321Z,72.86
2018-05-08T01:52:35.533Z,73.17
2018-05-08T01:53:06.757Z,73.16
2018-05-08T01:53:37.970Z,73.63
2018-05-08T01:54:09.259Z,73.80
2018-05-08T01:54:40.451Z,74.05
2018-05-08T01:55:11.655Z,74.33
2018-05-08T01:55:42.879Z,74.53
2018-05-08T01:56:14.093Z,74.58
2018-05-08T01:56:45.305Z,75.03
2018-05-08T01:57:16.512Z,75.91
2018-05-08T01:57:47.721Z,76.21
2018-05-08T01:58:18.928Z,76.16
2018-05-08T01:58:50.148Z,76.16
2018-05-08T01:59:21.405Z,75.85
2018-05-08T01:59:52.667Z,75.67
2018-05-08T02:00:23.867Z,75.71
2018-05-08T02:00:55.087Z,75.71
2018-05-08T02:01:26.303Z,75.73
2018-05-08T02:01:57.653Z,75.81
2018-05-08T02:02:28.863Z,76.09
2018-05-08T02:03:00.105Z,76.12
2018-05-08T02:03:31.412Z,76.22
2018-05-08T02:04:02.634Z,76.41
2018-05-08T02:04:33.847Z,76.67
2018-05-08T02:05:05.069Z,76.50
2018-05-08T02:05:36.350Z,76.38
2018-05-08T02:06:07.565Z,76.10
2018-05-08T02:06:38.787Z,76.36
2018-05-08T02:07:10.003Z,75.98
2018-05-08T02:07:41.289Z,78.37
2018-05-08T02:08:12.575Z,77.02
2018-05-08T02:08:43.789Z,76.96
2018-05-08T02:09:15.281Z,77.91
2018-05-08T02:09:46.493Z,77.27
2018-05-08T02:10:17.700Z,77.63
2018-05-08T02:10:48.917Z,77.48
2018-05-08T02:11:20.118Z,77.92
2018-05-08T02:11:51.326Z,76.20
2018-05-08T02:12:22.545Z,75.95
2018-05-08T02:12:53.796Z,76.34
2018-05-08T02:13:25.100Z,76.35
2018-05-08T02:13:56.312Z,76.16
2018-05-08T02:14:27.514Z,75.96
2018-05-08T02:14:58.724Z,76.76
2018-05-08T02:15:29.934Z,76.42
2018-05-08T02:16:01.154Z,77.23
2018-05-08T02:16:32.361Z,77.12
2018-05-08T02:17:03.570Z,77.36
2018-05-08T02:17:34.794Z,77.03
2018-05-08T02:18:06.067Z,77.08
2018-05-08T02:18:37.322Z,77.17
2018-05-08T02:19:08.515Z,76.15
2018-05-08T02:19:39.732Z,77.07
2018-05-08T02:20:10.945Z,76.25
2018-05-08T02:20:42.152Z,76.18
2018-05-08T02:21:13.399Z,76.06
2018-05-08T02:21:44.617Z,75.95
2018-05-08T02:22:15.815Z,75.77
2018-05-08T02:22:47.029Z,75.83
2018-05-08T02:23:18.295Z,76.43
2018-05-08T02:23:49.523Z,75.93
2018-05-08T02:24:20.728Z,76.13
2018-05-08T02:24:51.941Z,76.54
2018-05-08T02:25:23.140Z,76.30
2018-05-08T02:25:54.478Z,75.41
2018-05-08T02:26:25.697Z,76.03
2018-05-08T02:26:56.909Z,75.92
2018-05-08T02:27:28.121Z,76.19
2018-05-08T02:27:59.340Z,76.24
2018-05-08T02:28:30.559Z,76.61
2018-05-08T02:29:01.791Z,76.39
2018-05-08T02:29:32.998Z,76.71
2018-05-08T02:30:04.223Z,76.93
2018-05-08T02:30:35.446Z,76.68
2018-05-08T02:31:06.703Z,76.41
2018-05-08T02:31:37.919Z,76.59
2018-05-08T02:32:09.138Z,76.79
2018-05-08T02:32:40.343Z,76.81
2018-05-08T02:33:11.549Z,76.98
2018-05-08T02:33:43.608Z,77.02
2018-05-08T02:34:14.826Z,76.85
2018-05-08T02:34:46.035Z,76.97
2018-05-08T02:35:17.276Z,77.14
2018-05-08T02:35:48.476Z,77.16
2018-05-08T02:36:19.686Z,77.24
2018-05-08T02:36:50.897Z,77.45
2018-05-08T02:37:22.155Z,77.44
2018-05-08T02:37:53.387Z,77.49
2018-05-08T02:38:24.617Z,77.39
2018-05-08T02:38:55.827Z,77.43
2018-05-08T02:39:27.072Z,77.44
2018-05-08T02:39:58.308Z,77.46
2018-05-08T02:40:29.525Z,77.50
2018-05-08T02:41:00.754Z,77.58
2018-05-08T02:41:31.972Z,77.30
2018-05-08T02:42:03.466Z,77.29
2018-05-08T02:42:34.825Z,77.45
2018-05-08T02:43:06.066Z,77.45
2018-05-08T02:43:38.415Z,77.27
2018-05-08T02:44:09.627Z,77.08
2018-05-08T02:44:40.836Z,77.11
2018-05-08T02:45:12.085Z,77.15
2018-05-08T02:45:43.309Z,77.04
2018-05-08T02:46:14.514Z,77.08
2018-05-08T02:46:45.724Z,77.17
2018-05-08T02:47:16.929Z,77.18
2018-05-08T02:47:48.819Z,76.75
2018-05-08T02:48:20.033Z,76.94
2018-05-08T02:48:51.219Z,76.61
2018-05-08T02:49:22.425Z,76.69
2018-05-08T02:49:53.630Z,76.51
2018-05-08T02:50:24.852Z,76.58
2018-05-08T02:50:56.099Z,76.39
2018-05-08T02:51:27.325Z,76.28
2018-05-08T02:51:58.534Z,76.15
2018-05-08T02:52:29.761Z,76.29
2018-05-08T02:53:01.043Z,76.03
2018-05-08T02:53:32.268Z,76.03
2018-05-08T02:54:04.447Z,76.17
2018-05-08T02:54:35.668Z,76.13
2018-05-08T02:55:06.925Z,76.19
2018-05-08T02:55:38.179Z,76.27
2018-05-08T02:56:09.442Z,76.42
2018-05-08T02:56:40.697Z,76.60
2018-05-08T02:57:11.890Z,76.66
2018-05-08T02:57:43.105Z,76.26
2018-05-08T02:58:14.316Z,76.62
2018-05-08T02:58:46.356Z,76.45
2018-05-08T02:59:17.602Z,76.64
2018-05-08T02:59:48.816Z,76.43
2018-05-08T03:00:20.044Z,76.55
2018-05-08T03:00:51.344Z,76.31
2018-05-08T03:01:22.567Z,76.14
2018-05-08T03:01:53.793Z,76.44
2018-05-08T03:02:25.004Z,76.80
2018-05-08T03:02:56.217Z,76.85
2018-05-08T03:03:27.450Z,76.62
2018-05-08T03:03:58.673Z,76.44
2018-05-08T03:04:29.883Z,77.03
2018-05-08T03:05:01.127Z,77.08
2018-05-08T03:05:32.352Z,76.74
2018-05-08T03:06:03.645Z,76.69
2018-05-08T03:06:34.858Z,76.00
2018-05-08T03:07:06.117Z,76.53
2018-05-08T03:07:37.329Z,76.89
2018-05-08T03:08:08.533Z,76.31
2018-05-08T03:08:39.764Z,76.63
2018-05-08T03:09:10.977Z,76.40
2018-05-08T03:09:42.186Z,75.87
2018-05-08T03:10:13.419Z,75.59
2018-05-08T03:10:44.722Z,75.60
2018-05-08T03:11:15.937Z,75.75
2018-05-08T03:11:47.190Z,75.70
2018-05-08T03:12:18.425Z,75.68
2018-05-08T03:12:49.627Z,75.58
2018-05-08T03:13:20.883Z,75.47
2018-05-08T03:13:52.113Z,75.16
2018-05-08T03:14:23.325Z,75.14
2018-05-08T03:14:54.539Z,75.30
2018-05-08T03:15:25.742Z,75.17
2018-05-08T03:15:56.991Z,74.95
2018-05-08T03:16:28.193Z,74.96
2018-05-08T03:16:59.435Z,74.80
2018-05-08T03:17:30.696Z,74.74
2018-05-08T03:18:01.924Z,74.54
2018-05-08T03:18:33.137Z,74.46
2018-05-08T03:19:04.333Z,74.42
2018-05-08T03:19:35.546Z,74.43
2018-05-08T03:20:06.749Z,74.45
2018-05-08T03:20:39.012Z,74.56
2018-05-08T03:21:10.218Z,74.60
2018-05-08T03:21:41.800Z,74.52
2018-05-08T03:22:13.105Z,74.39
2018-05-08T03:22:44.308Z,74.39
2018-05-08T03:23:15.556Z,74.49
2018-05-08T03:23:46.808Z,74.41
2018-05-08T03:24:18.021Z,74.39
2018-05-08T03:24:50.271Z,74.37
2018-05-08T03:25:21.481Z,74.17
2018-05-08T03:25:53.325Z,75.12
2018-05-08T03:26:24.536Z,74.69
2018-05-08T03:26:55.743Z,74.53
2018-05-08T03:27:27.002Z,73.88
2018-05-08T03:27:59.071Z,73.91
2018-05-08T03:28:30.290Z,74.03
2018-05-08T03:29:01.501Z,73.92
2018-05-08T03:29:32.725Z,73.18
2018-05-08T03:30:03.964Z,72.85
2018-05-08T03:30:35.187Z,73.35
2018-05-08T03:31:06.409Z,74.06
2018-05-08T03:31:37.629Z,75.26
2018-05-08T03:32:08.837Z,74.79
2018-05-08T03:32:40.185Z,74.64
2018-05-08T03:33:11.407Z,74.72
2018-05-08T03:33:42.633Z,74.05
2018-05-08T03:34:14.604Z,73.42
2018-05-08T03:34:45.915Z,73.40
2018-05-08T03:35:17.124Z,73.36
2018-05-08T03:35:48.343Z,73.39
2018-05-08T03:36:19.637Z,73.01
2018-05-08T03:36:50.894Z,72.98
2018-05-08T03:37:22.164Z,73.15
2018-05-08T03:37:53.501Z,73.27
2018-05-08T03:38:24.814Z,73.37
2018-05-08T03:38:56.076Z,73.29
2018-05-08T03:39:27.619Z,73.24
2018-05-08T03:39:58.928Z,73.22
2018-05-08T03:40:30.150Z,73.34
2018-05-08T03:41:01.371Z,73.54
2018-05-08T03:41:32.585Z,73.76
2018-05-08T03:42:03.787Z,73.67
2018-05-08T03:42:35.001Z,73.73
2018-05-08T03:43:06.206Z,73.73
2018-05-08T03:43:37.458Z,73.92
2018-05-08T03:44:08.670Z,73.78
2018-05-08T03:44:39.887Z,73.64
2018-05-08T03:45:11.151Z,73.56
2018-05-08T03:45:42.394Z,73.81
2018-05-08T03:46:13.653Z,74.02
2018-05-08T03:46:44.860Z,74.34
2018-05-08T03:47:16.055Z,74.81
2018-05-08T03:47:47.254Z,74.53
2018-05-08T03:48:18.468Z,73.36
2018-05-08T03:48:49.676Z,72.66
2018-05-08T03:49:20.886Z,72.50
2018-05-08T03:49:52.126Z,72.48
2018-05-08T03:50:23.334Z,72.58
2018-05-08T03:50:54.542Z,72.56
2018-05-08T03:51:25.792Z,72.32
2018-05-08T03:51:56.999Z,72.44
2018-05-08T03:52:28.242Z,72.65
2018-05-08T03:52:59.447Z,72.34
2018-05-08T03:53:30.643Z,72.40
2018-05-08T03:54:02.232Z,72.39
2018-05-08T03:54:33.497Z,72.34
2018-05-08T03:55:04.815Z,72.17
2018-05-08T03:55:36.028Z,72.12
2018-05-08T03:56:07.234Z,72.33
2018-05-08T03:56:38.498Z,72.44
2018-05-08T03:57:09.730Z,72.50
2018-05-08T03:57:40.969Z,72.27
2018-05-08T03:58:12.196Z,72.27
2018-05-08T03:58:43.417Z,72.29
2018-05-08T03:59:14.632Z,72.38
2018-05-08T03:59:45.855Z,72.38
2018-05-08T04:00:17.078Z,72.43
2018-05-08T04:00:48.293Z,72.17
2018-05-08T04:01:19.499Z,71.95
2018-05-08T04:01:50.748Z,71.86
2018-05-08T04:02:21.950Z,71.85
2018-05-08T04:02:53.161Z,71.67
2018-05-08T04:03:24.377Z,71.68
2018-05-08T04:03:55.593Z,71.65
2018-05-08T04:04:26.895Z,71.64
2018-05-08T04:04:58.110Z,71.63
2018-05-08T04:05:29.322Z,71.68
2018-05-08T04:06:00.551Z,71.73
2018-05-08T04:06:31.824Z,71.42
2018-05-08T04:07:03.059Z,71.54
2018-05-08T04:07:34.262Z,71.72
2018-05-08T04:08:05.523Z,71.79
2018-05-08T04:08:36.730Z,71.71
2018-05-08T04:09:07.939Z,71.72
2018-05-08T04:09:39.152Z,71.87
2018-05-08T04:10:10.437Z,71.90
2018-05-08T04:10:41.669Z,71.90
2018-05-08T04:11:12.881Z,71.94
2018-05-08T04:11:44.132Z,71.58
2018-05-08T04:12:15.349Z,71.56
2018-05-08T04:12:46.592Z,72.03
2018-05-08T04:13:17.804Z,71.99
2018-05-08T04:13:49.054Z,72.24
2018-05-08T04:14:20.289Z,72.00
2018-05-08T04:14:51.514Z,71.83
2018-05-08T04:15:22.833Z,71.60
2018-05-08T04:15:54.027Z,71.46
2018-05-08T04:16:25.241Z,71.33
2018-05-08T04:16:56.450Z,71.69
2018-05-08T04:17:27.725Z,71.45
2018-05-08T04:17:58.986Z,71.16
2018-05-08T04:18:30.217Z,70.45
2018-05-08T04:19:01.433Z,70.40
2018-05-08T04:19:32.662Z,70.54
2018-05-08T04:20:03.881Z,70.78
2018-05-08T04:20:35.092Z,70.64
2018-05-08T04:21:06.344Z,70.71
2018-05-08T04:21:37.552Z,70.33
2018-05-08T04:22:08.767Z,70.37
2018-05-08T04:22:40.717Z,70.34
2018-05-08T04:23:11.982Z,69.72
2018-05-08T04:23:46.797Z,69.88
2018-05-08T04:24:18.022Z,69.73
2018-05-08T04:24:49.253Z,69.97
2018-05-08T04:25:58.429Z,69.86
2018-05-08T04:26:29.666Z,69.90
2018-05-08T04:27:00.895Z,69.71
2018-05-08T04:27:32.191Z,70.20
2018-05-08T04:28:03.408Z,69.01
2018-05-08T04:28:34.644Z,68.99
2018-05-08T04:29:05.866Z,69.24
2018-05-08T04:29:37.117Z,68.73
2018-05-08T04:30:08.407Z,68.67
2018-05-08T04:30:39.685Z,68.83
2018-05-08T04:31:10.935Z,69.09
2018-05-08T04:31:42.181Z,69.93
2018-05-08T04:32:13.419Z,69.77
2018-05-08T04:32:44.650Z,69.48
2018-05-08T04:33:15.933Z,69.52
2018-05-08T04:33:47.177Z,69.60
2018-05-08T04:34:18.447Z,69.15
2018-05-08T04:34:49.708Z,69.80
2018-05-08T04:35:20.987Z,69.99
2018-05-08T04:35:52.234Z,69.66
2018-05-08T04:36:23.470Z,69.16
2018-05-08T04:36:54.695Z,69.91
2018-05-08T04:37:25.930Z,68.01
2018-05-08T04:37:57.215Z,67.42
2018-05-08T04:38:28.453Z,66.56
2018-05-08T04:38:59.690Z,64.85
2018-05-08T04:39:31.712Z,63.66
2018-05-08T04:40:03.641Z,63.26
2018-05-08T04:40:34.985Z,62.91
2018-05-08T04:41:10.679Z,63.44
2018-05-08T04:41:43.059Z,62.68
2018-05-08T04:42:17.419Z,62.01
2018-05-08T04:42:48.729Z,60.56
2018-05-08T04:43:21.587Z,60.12
2018-05-08T04:43:52.868Z,59.07
2018-05-08T04:44:24.461Z,59.90
2018-05-08T04:44:55.843Z,60.21
2018-05-08T04:45:27.349Z,60.07
2018-05-08T04:45:58.880Z,60.34
2018-05-08T04:46:31.308Z,60.50
2018-05-08T04:47:03.168Z,61.31
2018-05-08T04:47:35.326Z,61.46
2018-05-08T04:48:07.869Z,61.28
2018-05-08T04:48:40.209Z,61.72
2018-05-08T04:49:11.803Z,62.26
2018-05-08T04:49:43.121Z,62.70
2018-05-08T04:50:14.755Z,63.29
2018-05-08T04:50:46.065Z,63.19
2018-05-08T04:51:17.340Z,63.18
2018-05-08T04:51:49.528Z,63.60
2018-05-08T04:53:00.236Z,63.85
2018-05-08T04:53:34.387Z,64.25
2018-05-08T04:54:05.845Z,64.89
2018-05-08T04:54:38.128Z,64.95
2018-05-08T04:55:09.587Z,65.35
2018-05-08T04:55:42.432Z,65.93
2018-05-08T04:56:14.569Z,65.89
2018-05-08T04:56:46.305Z,66.45
2018-05-08T04:57:18.002Z,66.06
2018-05-08T04:57:49.875Z,65.56
2018-05-08T04:58:21.345Z,65.55
2018-05-08T04:59:32.474Z,64.94
2018-05-08T05:00:03.827Z,64.52
2018-05-08T05:00:36.025Z,63.35
2018-05-08T05:01:07.249Z,61.52
2018-05-08T05:01:38.885Z,60.69
2018-05-08T05:02:10.168Z,60.24
2018-05-08T05:02:41.464Z,60.48
2018-05-08T05:03:13.547Z,58.79
2018-05-08T05:03:44.896Z,57.97
2018-05-08T05:04:16.148Z,57.56
2018-05-08T05:04:47.418Z,56.66
2018-05-08T05:05:18.681Z,56.11
2018-05-08T05:05:49.959Z,54.93
2018-05-08T05:06:21.264Z,53.96
2018-05-08T05:06:52.503Z,52.67
2018-05-08T05:07:23.755Z,52.17
2018-05-08T05:07:54.974Z,50.75
2018-05-08T05:08:26.240Z,48.93
2018-05-08T05:08:57.504Z,49.06
2018-05-08T05:09:28.709Z,48.75
2018-05-08T05:10:00.514Z,48.44
2018-05-08T05:10:31.735Z,47.54
2018-05-08T05:11:03.070Z,47.34
2018-05-08T05:11:34.242Z,48.41
2018-05-08T05:12:05.478Z,47.83
2018-05-08T05:12:36.697Z,47.37
2018-05-08T05:13:07.949Z,46.88
2018-05-08T05:13:39.185Z,46.49
2018-05-08T05:14:10.462Z,45.30
2018-05-08T05:14:41.699Z,44.35
2018-05-08T05:15:12.914Z,43.72
2018-05-08T05:15:44.154Z,41.88
2018-05-08T05:16:15.385Z,41.44
2018-05-08T05:16:46.651Z,40.99
2018-05-08T05:17:17.869Z,42.33
2018-05-08T05:17:49.101Z,41.94
2018-05-08T05:18:20.345Z,42.86
2018-05-08T05:18:51.574Z,43.35
2018-05-08T05:19:22.918Z,42.22
2018-05-08T05:19:54.138Z,41.77
2018-05-08T05:20:25.357Z,41.48
2018-05-08T05:20:56.616Z,40.71
2018-05-08T05:21:27.829Z,40.82
2018-05-08T05:21:59.038Z,40.49
2018-05-08T05:22:30.254Z,40.17
2018-05-08T05:23:01.482Z,39.15
2018-05-08T05:23:32.700Z,39.10
2018-05-08T05:24:03.917Z,39.69
2018-05-08T05:24:35.218Z,38.94
2018-05-08T05:25:06.394Z,39.76
2018-05-08T05:25:37.623Z,39.52
2018-05-08T05:26:08.902Z,39.54
2018-05-08T05:26:40.125Z,39.07
2018-05-08T05:27:11.354Z,38.35
2018-05-08T05:27:42.581Z,38.19
2018-05-08T05:28:13.872Z,38.55
2018-05-08T05:28:45.118Z,38.43
2018-05-08T05:29:16.349Z,37.88
2018-05-08T05:29:47.581Z,38.21
2018-05-08T05:30:18.800Z,38.29
2018-05-08T05:30:50.137Z,38.80
2018-05-08T05:31:21.367Z,38.21
2018-05-08T05:31:52.627Z,39.17
2018-05-08T05:32:23.827Z,38.72
2018-05-08T05:32:55.038Z,39.40
2018-05-08T05:33:26.302Z,39.71
2018-05-08T05:33:57.529Z,39.26
2018-05-08T05:34:28.745Z,39.94
2018-05-08T05:34:59.953Z,40.35
2018-05-08T05:35:31.216Z,40.61
2018-05-08T05:36:02.464Z,40.55
2018-05-08T05:36:33.692Z,40.02
2018-05-08T05:37:04.975Z,41.34
2018-05-08T05:37:36.202Z,40.27
2018-05-08T05:38:07.435Z,39.73
2018-05-08T05:38:38.671Z,40.06
2018-05-08T05:39:09.903Z,41.06
2018-05-08T05:39:41.125Z,42.06
2018-05-08T05:40:12.350Z,42.38
2018-05-08T05:40:43.592Z,42.16
2018-05-08T05:41:14.816Z,41.59
2018-05-08T05:41:46.049Z,41.43
2018-05-08T05:42:17.312Z,41.65
2018-05-08T05:42:48.519Z,42.58
2018-05-08T05:43:19.741Z,43.52
2018-05-08T05:43:50.948Z,42.46
2018-05-08T05:44:22.157Z,43.09
2018-05-08T05:44:53.439Z,43.75
2018-05-08T05:45:24.682Z,43.64
2018-05-08T05:45:55.905Z,43.33
2018-05-08T05:46:27.113Z,43.72
2018-05-08T05:46:58.366Z,44.12
2018-05-08T05:47:29.579Z,44.37
2018-05-08T05:48:00.788Z,43.99
2018-05-08T05:48:32.038Z,44.48
2018-05-08T05:49:03.311Z,44.26
2018-05-08T05:49:34.533Z,43.85
2018-05-08T05:50:05.748Z,44.77
2018-05-08T05:50:36.970Z,44.12
2018-05-08T05:51:08.221Z,44.18
2018-05-08T05:51:39.439Z,44.72
2018-05-08T05:52:10.666Z,45.37
2018-05-08T05:52:41.956Z,45.08
2018-05-08T05:53:14.073Z,46.34
2018-05-08T05:53:45.390Z,46.33
2018-05-08T05:54:16.630Z,46.55
2018-05-08T05:54:47.882Z,46.53
2018-05-08T05:55:19.114Z,46.46
2018-05-08T05:55:50.346Z,46.47
2018-05-08T05:56:21.537Z,46.50
2018-05-08T05:56:52.784Z,46.99
2018-05-08T05:57:24.005Z,46.75
2018-05-08T05:57:55.209Z,46.93
2018-05-08T05:58:26.606Z,46.03
2018-05-08T05:58:57.852Z,46.39
2018-05-08T05:59:29.081Z,44.71
2018-05-08T06:00:00.336Z,44.51
2018-05-08T06:00:31.549Z,44.71
2018-05-08T06:01:02.810Z,45.21
2018-05-08T06:01:34.026Z,45.77
2018-05-08T06:02:05.322Z,46.46
2018-05-08T06:02:36.562Z,45.80
2018-05-08T06:03:07.783Z,45.29
2018-05-08T06:03:39.021Z,45.38
2018-05-08T06:04:10.261Z,45.82
2018-05-08T06:04:41.483Z,47.06
2018-05-08T06:05:12.689Z,47.24
2018-05-08T06:05:43.908Z,47.19
2018-05-08T06:06:15.180Z,46.61
2018-05-08T06:06:46.395Z,46.72
2018-05-08T06:07:17.658Z,45.79
2018-05-08T06:07:48.897Z,45.17
2018-05-08T06:08:20.117Z,45.68
2018-05-08T06:08:51.348Z,46.74
2018-05-08T06:09:22.553Z,47.20
2018-05-08T06:09:53.809Z,47.24
2018-05-08T06:11:08.252Z,49.01
2018-05-08T06:11:39.521Z,48.07
2018-05-08T06:12:10.795Z,47.07
2018-05-08T06:12:42.037Z,46.63
2018-05-08T06:13:13.290Z,47.37
2018-05-08T06:13:44.509Z,48.60
2018-05-08T06:14:15.742Z,49.13
2018-05-08T06:14:47.005Z,48.33
2018-05-08T06:15:18.245Z,48.61
2018-05-08T06:15:49.486Z,49.10
2018-05-08T06:16:20.709Z,49.36
2018-05-08T06:16:51.903Z,48.85
2018-05-08T06:17:23.123Z,49.25
2018-05-08T06:17:54.386Z,49.10
2018-05-08T06:18:25.606Z,49.02
2018-05-08T06:18:56.911Z,49.08
2018-05-08T06:19:28.133Z,49.27
2018-05-08T06:19:59.401Z,50.17
2018-05-08T06:20:31.619Z,50.94
2018-05-08T06:21:06.336Z,50.39
2018-05-08T06:21:37.538Z,49.57
2018-05-08T06:22:08.746Z,49.18
2018-05-08T06:22:39.970Z,48.97
2018-05-08T06:23:11.253Z,49.44
2018-05-08T06:23:42.476Z,49.06
2018-05-08T06:24:13.705Z,49.10
2018-05-08T06:24:44.915Z,49.09
2018-05-08T06:25:16.201Z,48.19
2018-05-08T06:25:47.443Z,48.55
2018-05-08T06:26:18.674Z,48.65
2018-05-08T06:26:49.941Z,49.18
2018-05-08T06:27:21.233Z,50.25
2018-05-08T06:27:52.557Z,50.16
2018-05-08T06:28:23.841Z,50.06
2018-05-08T06:28:55.146Z,49.81
2018-05-08T06:29:27.308Z,49.71
2018-05-08T06:29:59.727Z,49.40
2018-05-08T06:30:30.958Z,49.14
2018-05-08T06:31:02.205Z,49.54
2018-05-08T06:31:33.436Z,49.62
2018-05-08T06:32:04.697Z,49.00
2018-05-08T06:32:35.920Z,49.78
2018-05-08T06:33:07.163Z,49.78
2018-05-08T06:33:38.368Z,49.52
2018-05-08T06:34:09.648Z,48.21
2018-05-08T06:34:40.857Z,49.03
2018-05-08T06:35:13.567Z,49.21
2018-05-08T06:35:44.785Z,49.17
2018-05-08T06:36:16.063Z,48.38
2018-05-08T06:36:47.316Z,48.65
2018-05-08T06:37:18.559Z,48.60
2018-05-08T06:37:50.828Z,48.87
2018-05-08T06:38:22.077Z,50.11
2018-05-08T06:38:53.352Z,50.07
2018-05-08T06:39:26.759Z,49.85
2018-05-08T06:39:58.129Z,50.10
2018-05-08T06:40:31.414Z,50.24
2018-05-08T06:41:02.997Z,50.33
2018-05-08T06:42:23.893Z,49.08
2018-05-08T06:44:10.233Z,45.49
2018-05-08T06:44:41.544Z,43.89
2018-05-08T06:45:12.815Z,46.61
2018-05-08T06:45:44.114Z,47.02
2018-05-08T06:46:16.424Z,47.17
2018-05-08T06:46:47.778Z,46.99
2018-05-08T06:47:18.950Z,46.82
2018-05-08T06:47:50.183Z,45.41
2018-05-08T06:48:21.518Z,46.37